createdAt,value
2022-09-27T00:00:07.773Z,54.30
2022-09-27T00:02:34.351Z,54.10
2022-09-27T00:05:00.927Z,54.12
2022-09-27T00:07:27.423Z,54.04
2022-09-27T00:09:53.976Z,54.28
2022-09-27T00:12:20.498Z,54.19
2022-09-27T00:14:47.001Z,53.87
2022-09-27T00:17:13.568Z,54.16
2022-09-27T00:19:40.088Z,54.25
2022-09-27T00:22:06.622Z,54.31
2022-09-27T00:24:33.166Z,54.27
2022-09-27T00:26:59.680Z,54.18
2022-09-27T00:29:26.304Z,54.09
2022-09-27T00:31:52.831Z,54.41
2022-09-27T00:34:21.087Z,54.19
2022-09-27T00:36:47.832Z,54.15
2022-09-27T00:39:14.954Z,54.16
2022-09-27T00:41:42.316Z,54.06
2022-09-27T00:44:26.861Z,54.13
2022-09-27T00:47:08.225Z,54.16
2022-09-27T00:49:34.638Z,53.90
2022-09-27T00:52:08.900Z,54.06
2022-09-27T00:54:36.443Z,54.25
2022-09-27T00:57:03.553Z,54.22
2022-09-27T00:59:36.555Z,54.33
2022-09-27T01:02:04.303Z,54.39
2022-09-27T01:04:31.049Z,54.11
2022-09-27T01:06:57.560Z,54.25
2022-09-27T01:09:24.083Z,54.13
2022-09-27T01:12:09.221Z,54.39
2022-09-27T01:15:12.954Z,54.30
2022-09-27T01:18:10.489Z,54.28
2022-09-27T01:21:10.879Z,54.26
2022-09-27T01:23:50.372Z,54.28
2022-09-27T01:26:31.960Z,54.37
2022-09-27T01:29:06.997Z,54.27
2022-09-27T01:31:47.140Z,54.32
2022-09-27T01:34:27.024Z,54.34
2022-09-27T01:37:02.196Z,54.40
2022-09-27T01:40:00.093Z,54.34
2022-09-27T01:42:27.887Z,54.31
2022-09-27T01:44:58.911Z,54.56
2022-09-27T01:47:48.492Z,54.42
2022-09-27T01:50:39.602Z,54.46
2022-09-27T01:53:30.610Z,54.17
2022-09-27T01:55:57.589Z,54.35
2022-09-27T01:58:30.766Z,54.36
2022-09-27T02:00:57.337Z,54.24
2022-09-27T02:03:40.099Z,54.40
2022-09-27T02:06:13.079Z,54.26
2022-09-27T02:08:44.055Z,54.41
2022-09-27T02:11:12.031Z,54.45
2022-09-27T02:14:05.097Z,54.45
2022-09-27T02:16:43.640Z,54.28
2022-09-27T02:19:36.324Z,54.49
2022-09-27T02:22:21.502Z,54.19
2022-09-27T02:24:54.852Z,54.41
2022-09-27T02:27:30.119Z,54.41
2022-09-27T02:30:00.857Z,54.39
2022-09-27T02:32:27.471Z,54.53
2022-09-27T02:34:55.879Z,54.19
2022-09-27T02:37:22.415Z,54.55
2022-09-27T02:39:49.102Z,54.41
2022-09-27T02:42:15.622Z,54.56
2022-09-27T02:44:42.164Z,54.21
2022-09-27T02:47:16.134Z,54.42
2022-09-27T02:49:50.642Z,54.45
2022-09-27T02:52:39.033Z,54.44
2022-09-27T02:55:11.426Z,54.45
2022-09-27T02:57:46.813Z,54.31
2022-09-27T03:00:18.483Z,54.49
2022-09-27T03:02:45.009Z,54.72
2022-09-27T03:05:15.208Z,54.42
2022-09-27T03:07:41.772Z,54.43
2022-09-27T03:10:11.106Z,54.35
2022-09-27T03:12:37.620Z,54.65
2022-09-27T03:15:05.235Z,54.38
2022-09-27T03:17:31.776Z,54.26
2022-09-27T03:19:58.284Z,54.39
2022-09-27T03:22:24.810Z,54.26
2022-09-27T03:24:51.303Z,54.10
2022-09-27T03:27:17.864Z,54.09
2022-09-27T03:29:44.405Z,54.24
2022-09-27T03:32:10.890Z,54.16
2022-09-27T03:34:37.879Z,54.49
2022-09-27T03:37:04.380Z,54.56
2022-09-27T03:39:30.898Z,54.44
2022-09-27T03:41:57.435Z,54.39
2022-09-27T03:44:23.994Z,54.45
2022-09-27T03:46:50.486Z,54.43
2022-09-27T03:49:17.603Z,54.28
2022-09-27T03:51:44.105Z,54.35
2022-09-27T03:54:10.655Z,54.39
2022-09-27T03:56:37.151Z,54.46
2022-09-27T03:59:03.770Z,54.24
2022-09-27T04:01:30.589Z,54.31
2022-09-27T04:03:57.203Z,54.52
2022-09-27T04:06:23.982Z,54.42
2022-09-27T04:08:50.699Z,54.46
2022-09-27T04:11:17.503Z,54.46
2022-09-27T04:13:44.549Z,54.60
2022-09-27T04:16:11.079Z,54.44
2022-09-27T04:18:37.598Z,54.10
2022-09-27T04:21:04.221Z,54.51
2022-09-27T04:23:30.927Z,54.92
2022-09-27T04:25:57.470Z,54.80
2022-09-27T04:28:23.991Z,54.39
2022-09-27T04:30:50.687Z,54.07
2022-09-27T04:33:17.347Z,54.53
2022-09-27T04:36:02.618Z,54.51
2022-09-27T04:38:29.162Z,54.48
2022-09-27T04:40:55.851Z,54.56
2022-09-27T04:43:22.519Z,54.52
2022-09-27T04:45:49.119Z,54.37
2022-09-27T04:48:28.013Z,54.67
2022-09-27T04:50:58.761Z,54.48
2022-09-27T04:53:25.500Z,54.71
2022-09-27T04:55:53.321Z,54.69
2022-09-27T04:58:20.030Z,54.49
2022-09-27T05:00:47.580Z,54.57
2022-09-27T05:03:15.040Z,54.49
2022-09-27T05:05:41.586Z,54.40
2022-09-27T05:08:08.149Z,54.50
2022-09-27T05:10:34.651Z,54.67
2022-09-27T05:13:01.183Z,54.18
2022-09-27T05:15:27.714Z,54.49
2022-09-27T05:17:54.363Z,54.52
2022-09-27T05:20:20.978Z,54.38
2022-09-27T05:22:47.591Z,54.49
2022-09-27T05:25:14.218Z,54.50
2022-09-27T05:27:41.156Z,54.59
2022-09-27T05:30:08.251Z,54.54
2022-09-27T05:32:35.264Z,54.32
2022-09-27T05:35:02.456Z,54.62
2022-09-27T05:37:31.417Z,54.70
2022-09-27T05:39:57.948Z,54.55
2022-09-27T05:42:24.543Z,54.56
2022-09-27T05:44:51.073Z,54.49
2022-09-27T05:47:17.580Z,54.57
2022-09-27T05:49:44.131Z,54.55
2022-09-27T05:52:15.026Z,54.40
2022-09-27T05:54:43.325Z,54.08
2022-09-27T05:57:09.847Z,53.34
2022-09-27T05:59:36.377Z,52.93
2022-09-27T06:02:03.076Z,51.91
2022-09-27T06:04:29.644Z,50.90
2022-09-27T06:06:58.984Z,50.81
2022-09-27T06:09:27.452Z,51.33
2022-09-27T06:11:53.995Z,51.43
2022-09-27T06:14:20.899Z,51.81
2022-09-27T06:16:48.092Z,52.10
2022-09-27T06:19:14.853Z,52.75
2022-09-27T06:21:41.407Z,52.50
2022-09-27T06:24:08.127Z,52.71
2022-09-27T06:26:34.723Z,52.58
2022-09-27T06:29:01.250Z,52.76
2022-09-27T06:31:27.785Z,52.78
2022-09-27T06:33:54.316Z,52.85
2022-09-27T06:36:20.831Z,52.87
2022-09-27T06:38:49.126Z,52.95
2022-09-27T06:41:16.391Z,53.35
2022-09-27T06:43:42.926Z,53.33
2022-09-27T06:46:09.561Z,53.25
2022-09-27T06:48:38.439Z,53.18
2022-09-27T06:51:05.512Z,53.36
2022-09-27T06:53:32.041Z,52.88
2022-09-27T06:56:00.437Z,51.91
2022-09-27T06:58:49.158Z,52.02
2022-09-27T07:01:16.611Z,52.07
2022-09-27T07:03:44.235Z,52.47
2022-09-27T07:06:22.754Z,52.48
2022-09-27T07:08:52.872Z,52.60
2022-09-27T07:11:19.604Z,52.70
2022-09-27T07:13:46.126Z,52.52
2022-09-27T07:16:13.620Z,52.95
2022-09-27T07:18:41.156Z,53.21
2022-09-27T07:21:08.748Z,53.21
2022-09-27T07:23:36.420Z,53.19
2022-09-27T07:26:08.554Z,53.29
2022-09-27T07:28:35.094Z,53.20
2022-09-27T07:31:02.550Z,53.17
2022-09-27T07:33:30.080Z,52.65
2022-09-27T07:35:56.613Z,52.69
2022-09-27T07:38:23.098Z,52.78
2022-09-27T07:40:49.780Z,52.70
2022-09-27T07:43:17.740Z,52.75
2022-09-27T07:45:44.327Z,53.00
2022-09-27T07:48:13.282Z,52.99
2022-09-27T07:50:39.823Z,53.20
2022-09-27T07:53:06.386Z,52.98
2022-09-27T07:55:32.927Z,53.25
2022-09-27T07:58:08.902Z,53.19
2022-09-27T08:00:35.564Z,53.27
2022-09-27T08:03:09.149Z,53.47
2022-09-27T08:05:36.213Z,53.33
2022-09-27T08:08:03.320Z,53.40
2022-09-27T08:10:31.488Z,53.50
2022-09-27T08:12:59.359Z,53.49
2022-09-27T08:15:26.041Z,53.38
2022-09-27T08:17:53.549Z,53.49
2022-09-27T08:20:20.075Z,53.32
2022-09-27T08:22:46.642Z,53.32
2022-09-27T08:25:14.203Z,53.57
2022-09-27T08:27:41.662Z,53.45
2022-09-27T08:30:08.682Z,53.66
2022-09-27T08:32:35.205Z,53.47
2022-09-27T08:35:01.746Z,53.56
2022-09-27T08:37:28.239Z,53.54
2022-09-27T08:39:54.728Z,53.73
2022-09-27T08:42:50.475Z,53.68
2022-09-27T08:45:19.198Z,53.44
2022-09-27T08:47:55.119Z,53.69
2022-09-27T08:50:28.208Z,53.72
2022-09-27T08:52:59.659Z,53.35
2022-09-27T08:55:42.183Z,53.59
2022-09-27T08:58:26.415Z,53.57
2022-09-27T09:00:55.482Z,53.72
2022-09-27T09:03:24.575Z,53.64
2022-09-27T09:06:11.279Z,53.74
2022-09-27T09:08:59.993Z,53.66
2022-09-27T09:12:17.019Z,53.76
2022-09-27T09:15:16.356Z,53.63
2022-09-27T09:17:51.871Z,53.86
2022-09-27T09:20:40.188Z,53.74
2022-09-27T09:23:28.208Z,53.83
2022-09-27T09:26:12.551Z,53.51
2022-09-27T09:29:01.589Z,53.76
2022-09-27T09:31:58.167Z,53.68
2022-09-27T09:34:45.402Z,53.68
2022-09-27T09:37:21.253Z,53.67
2022-09-27T09:39:59.565Z,53.84
2022-09-27T09:42:36.008Z,53.82
2022-09-27T09:45:06.496Z,53.83
2022-09-27T09:47:42.066Z,53.85
2022-09-27T09:50:18.636Z,53.96
2022-09-27T09:52:48.318Z,53.78
2022-09-27T09:55:26.535Z,53.82
2022-09-27T09:58:17.744Z,53.82
2022-09-27T10:00:46.296Z,53.92
2022-09-27T10:03:14.368Z,54.04
2022-09-27T10:05:42.155Z,53.85
2022-09-27T10:08:13.107Z,53.87
2022-09-27T10:10:39.885Z,53.52
2022-09-27T10:13:08.401Z,54.18
2022-09-27T10:15:34.943Z,53.95
2022-09-27T10:18:01.579Z,53.89
2022-09-27T10:20:34.281Z,54.02
2022-09-27T10:23:30.287Z,54.03
2022-09-27T10:25:59.029Z,53.96
2022-09-27T10:28:38.081Z,54.09
2022-09-27T10:31:09.544Z,53.89
2022-09-27T10:33:51.056Z,54.01
2022-09-27T10:36:29.243Z,54.13
2022-09-27T10:39:00.772Z,54.06
2022-09-27T10:41:42.619Z,54.06
2022-09-27T10:44:21.901Z,53.96
2022-09-27T10:46:49.665Z,53.86
2022-09-27T10:49:19.122Z,54.11
2022-09-27T10:51:45.784Z,54.04
2022-09-27T10:54:32.627Z,54.06
2022-09-27T10:57:14.347Z,54.13
2022-09-27T10:59:42.738Z,54.00
2022-09-27T11:02:36.085Z,54.36
2022-09-27T11:05:31.968Z,54.40
2022-09-27T11:07:59.655Z,54.33
2022-09-27T11:10:28.757Z,54.26
2022-09-27T11:13:24.708Z,54.32
2022-09-27T11:16:00.019Z,54.14
2022-09-27T11:18:29.435Z,54.29
2022-09-27T11:21:18.304Z,54.22
2022-09-27T11:23:51.791Z,54.43
2022-09-27T11:26:33.703Z,54.29
2022-09-27T11:29:35.776Z,54.46
2022-09-27T11:32:41.846Z,54.35
2022-09-27T11:35:26.820Z,54.47
2022-09-27T11:38:02.974Z,54.38
2022-09-27T11:41:03.588Z,54.37
2022-09-27T11:43:45.155Z,54.38
2022-09-27T11:46:31.034Z,54.37
2022-09-27T11:49:07.820Z,54.46
2022-09-27T11:51:49.957Z,54.38
2022-09-27T11:54:37.692Z,54.36
2022-09-27T11:57:19.332Z,54.48
2022-09-27T11:59:54.923Z,54.25
2022-09-27T12:02:43.151Z,54.19
2022-09-27T12:05:34.496Z,54.31
2022-09-27T12:08:06.891Z,54.25
2022-09-27T12:10:33.363Z,54.12
2022-09-27T12:12:59.923Z,54.27
2022-09-27T12:15:30.223Z,54.07
2022-09-27T12:18:14.379Z,54.19
2022-09-27T12:20:41.199Z,53.73
2022-09-27T12:23:23.994Z,53.54
2022-09-27T12:25:57.116Z,53.78
2022-09-27T12:28:51.081Z,53.69
2022-09-27T12:31:43.463Z,53.78
2022-09-27T12:34:31.586Z,54.03
2022-09-27T12:37:18.611Z,54.24
2022-09-27T12:39:50.967Z,54.09
2022-09-27T12:42:26.132Z,54.35
2022-09-27T12:44:52.651Z,54.59
2022-09-27T12:47:29.710Z,54.45
2022-09-27T12:50:09.720Z,54.47
2022-09-27T12:52:39.404Z,54.47
2022-09-27T12:55:22.208Z,54.82
2022-09-27T12:58:17.737Z,54.58
2022-09-27T13:00:51.740Z,54.69
2022-09-27T13:03:40.977Z,54.60
2022-09-27T13:06:13.435Z,54.87
2022-09-27T13:09:01.732Z,54.76
2022-09-27T13:11:49.793Z,55.07
2022-09-27T13:14:21.476Z,54.70
2022-09-27T13:16:48.333Z,54.71
2022-09-27T13:19:37.511Z,54.90
2022-09-27T13:22:08.459Z,54.67
2022-09-27T13:24:40.964Z,54.71
2022-09-27T13:27:23.308Z,54.91
2022-09-27T13:29:52.585Z,54.80
2022-09-27T13:32:23.572Z,54.95
2022-09-27T13:34:53.253Z,54.81
2022-09-27T13:37:28.756Z,54.86
2022-09-27T13:40:15.164Z,54.68
2022-09-27T13:43:07.391Z,54.30
2022-09-27T13:45:42.909Z,54.31
2022-09-27T13:48:16.325Z,54.30
2022-09-27T13:50:52.051Z,54.63
2022-09-27T13:53:35.714Z,54.66
2022-09-27T13:56:02.407Z,54.50
2022-09-27T13:58:42.507Z,54.70
2022-09-27T14:01:32.956Z,54.70
2022-09-27T14:04:14.905Z,54.94
2022-09-27T14:06:45.556Z,54.91
2022-09-27T14:09:18.091Z,54.96
2022-09-27T14:11:44.693Z,54.92
2022-09-27T14:14:15.855Z,55.01
2022-09-27T14:16:46.188Z,54.71
2022-09-27T14:19:15.990Z,54.87
2022-09-27T14:21:46.057Z,54.83
2022-09-27T14:24:37.089Z,54.98
2022-09-27T14:27:19.815Z,54.99
2022-09-27T14:29:50.360Z,55.03
2022-09-27T14:32:21.462Z,54.78
2022-09-27T14:35:36.777Z,54.98
2022-09-27T14:38:26.470Z,54.82
2022-09-27T14:40:55.539Z,54.96
2022-09-27T14:43:22.123Z,54.97
2022-09-27T14:45:49.268Z,55.06
2022-09-27T14:48:21.508Z,54.82
2022-09-27T14:51:05.728Z,54.97
2022-09-27T14:53:35.541Z,54.86
2022-09-27T14:56:02.424Z,55.06
2022-09-27T14:58:46.614Z,55.02
2022-09-27T15:01:15.835Z,55.04
2022-09-27T15:03:44.607Z,54.74
2022-09-27T15:06:11.444Z,55.07
2022-09-27T15:08:37.960Z,55.34
2022-09-27T15:11:10.564Z,55.10
2022-09-27T15:13:37.510Z,54.96
2022-09-27T15:16:17.315Z,54.96
2022-09-27T15:18:45.306Z,55.18
2022-09-27T15:21:15.239Z,55.23
2022-09-27T15:23:45.132Z,54.27
2022-09-27T15:26:16.041Z,53.84
2022-09-27T15:28:46.565Z,53.49
2022-09-27T15:31:13.514Z,53.55
2022-09-27T15:33:40.452Z,53.82
2022-09-27T15:36:08.396Z,53.88
2022-09-27T15:38:46.236Z,53.99
2022-09-27T15:41:14.861Z,54.11
2022-09-27T15:43:45.586Z,54.37
2022-09-27T15:46:29.354Z,54.36
2022-09-27T15:49:17.943Z,54.49
2022-09-27T15:51:48.009Z,54.60
2022-09-27T15:54:17.195Z,54.54
2022-09-27T15:56:44.095Z,54.58
2022-09-27T15:59:20.868Z,54.70
2022-09-27T16:01:47.895Z,54.41
2022-09-27T16:04:14.597Z,54.64
2022-09-27T16:06:42.728Z,54.89
2022-09-27T16:09:18.782Z,54.90
2022-09-27T16:11:49.175Z,54.81
2022-09-27T16:14:18.385Z,54.81
2022-09-27T16:16:46.288Z,54.81
2022-09-27T16:19:12.977Z,54.79
2022-09-27T16:21:39.484Z,54.87
2022-09-27T16:24:06.454Z,54.79
2022-09-27T16:26:34.104Z,55.09
2022-09-27T16:29:00.869Z,55.04
2022-09-27T16:31:27.490Z,54.92
2022-09-27T16:33:54.060Z,54.67
2022-09-27T16:36:20.736Z,54.33
2022-09-27T16:38:51.277Z,53.68
2022-09-27T16:41:18.730Z,53.81
2022-09-27T16:43:45.392Z,53.80
2022-09-27T16:46:14.440Z,53.92
2022-09-27T16:48:41.070Z,54.01
2022-09-27T16:51:30.144Z,54.14
2022-09-27T16:53:56.695Z,54.37
2022-09-27T16:56:23.328Z,54.44
2022-09-27T16:58:49.794Z,54.39
2022-09-27T17:01:19.473Z,54.71
2022-09-27T17:03:51.686Z,54.55
2022-09-27T17:06:20.018Z,54.64
2022-09-27T17:08:46.814Z,54.37
2022-09-27T17:11:15.355Z,54.44
2022-09-27T17:13:42.836Z,54.68
2022-09-27T17:16:10.902Z,54.63
2022-09-27T17:18:38.502Z,54.55
2022-09-27T17:21:05.537Z,54.73
2022-09-27T17:23:32.681Z,54.78
2022-09-27T17:26:05.960Z,54.87
2022-09-27T17:28:32.640Z,54.70
2022-09-27T17:31:08.885Z,54.82
2022-09-27T17:33:41.720Z,54.83
2022-09-27T17:36:08.384Z,54.76
2022-09-27T17:38:35.235Z,54.92
2022-09-27T17:41:10.985Z,55.11
2022-09-27T17:43:39.315Z,55.05
2022-09-27T17:46:09.707Z,54.96
2022-09-27T17:48:54.797Z,55.17
2022-09-27T17:51:21.772Z,54.96
2022-09-27T17:53:48.323Z,55.07
2022-09-27T17:56:14.932Z,55.18
2022-09-27T17:58:48.115Z,55.10
2022-09-27T18:01:14.628Z,55.07
2022-09-27T18:03:41.279Z,55.19
2022-09-27T18:06:08.251Z,55.20
2022-09-27T18:08:34.837Z,55.03
2022-09-27T18:11:05.729Z,55.11
2022-09-27T18:13:37.171Z,55.36
2022-09-27T18:16:04.981Z,55.24
2022-09-27T18:18:33.240Z,55.15
2022-09-27T18:21:03.598Z,55.29
2022-09-27T18:23:31.389Z,55.11
2022-09-27T18:25:58.230Z,55.37
2022-09-27T18:28:28.891Z,55.13
2022-09-27T18:30:55.729Z,55.21
2022-09-27T18:33:22.232Z,55.15
2022-09-27T18:35:48.740Z,55.25
2022-09-27T18:38:15.222Z,55.27
2022-09-27T18:40:55.799Z,55.26
2022-09-27T18:43:26.456Z,55.42
2022-09-27T18:45:52.999Z,55.20
2022-09-27T18:48:19.466Z,55.17
2022-09-27T18:50:45.964Z,55.17
2022-09-27T18:53:12.572Z,55.32
2022-09-27T18:55:39.874Z,55.08
2022-09-27T18:58:06.419Z,55.37
2022-09-27T19:00:32.972Z,55.19
2022-09-27T19:02:59.526Z,55.32
2022-09-27T19:05:25.997Z,55.48
2022-09-27T19:07:52.657Z,55.43
2022-09-27T19:10:19.190Z,55.21
2022-09-27T19:12:45.721Z,55.43
2022-09-27T19:15:12.178Z,55.33
2022-09-27T19:17:38.695Z,55.28
2022-09-27T19:20:07.320Z,55.34
2022-09-27T19:22:33.826Z,55.35
2022-09-27T19:25:00.309Z,55.31
2022-09-27T19:27:26.820Z,55.17
2022-09-27T19:29:58.947Z,55.09
2022-09-27T19:32:25.707Z,55.38
2022-09-27T19:34:52.187Z,55.31
2022-09-27T19:37:18.659Z,55.24
2022-09-27T19:39:45.249Z,55.39
2022-09-27T19:42:11.703Z,55.34
2022-09-27T19:44:38.204Z,55.30
2022-09-27T19:47:04.778Z,55.31
2022-09-27T19:49:31.286Z,55.45
2022-09-27T19:51:57.816Z,55.46
2022-09-27T19:54:24.345Z,55.31
2022-09-27T19:56:50.833Z,55.33
2022-09-27T19:59:17.412Z,55.25
2022-09-27T20:01:44.082Z,55.15
2022-09-27T20:04:13.527Z,55.35
2022-09-27T20:06:40.082Z,55.31
2022-09-27T20:09:06.583Z,55.35
2022-09-27T20:11:34.061Z,55.27
2022-09-27T20:14:00.622Z,55.41
2022-09-27T20:16:27.196Z,55.44
2022-09-27T20:18:55.357Z,55.41
2022-09-27T20:21:22.949Z,55.25
2022-09-27T20:23:50.411Z,55.37
2022-09-27T20:26:17.475Z,55.47
2022-09-27T20:28:45.203Z,55.29
2022-09-27T20:31:13.233Z,55.46
2022-09-27T20:33:43.590Z,55.22
2022-09-27T20:36:13.884Z,55.52
2022-09-27T20:38:41.316Z,55.26
2022-09-27T20:41:08.332Z,55.28
2022-09-27T20:43:34.889Z,55.59
2022-09-27T20:46:02.873Z,55.25
2022-09-27T20:48:29.401Z,55.36
2022-09-27T20:51:02.431Z,55.19
2022-09-27T20:53:30.880Z,55.42
2022-09-27T20:55:59.307Z,55.58
2022-09-27T20:58:26.098Z,55.44
2022-09-27T21:00:52.820Z,55.66
2022-09-27T21:03:21.741Z,55.54
2022-09-27T21:05:56.159Z,55.47
2022-09-27T21:08:23.003Z,55.57
2022-09-27T21:10:52.658Z,55.48
2022-09-27T21:13:19.413Z,54.99
2022-09-27T21:15:45.954Z,55.50
2022-09-27T21:18:12.679Z,55.22
2022-09-27T21:20:39.223Z,55.50
2022-09-27T21:23:05.780Z,55.31
2022-09-27T21:25:32.284Z,55.39
2022-09-27T21:27:58.815Z,55.53
2022-09-27T21:30:25.364Z,55.39
2022-09-27T21:32:55.390Z,55.47
2022-09-27T21:35:22.174Z,55.37
2022-09-27T21:37:48.794Z,55.33
2022-09-27T21:40:15.884Z,55.32
2022-09-27T21:42:42.406Z,55.21
2022-09-27T21:45:09.430Z,55.53
2022-09-27T21:47:35.903Z,55.47
2022-09-27T21:50:02.423Z,55.44
2022-09-27T21:52:28.895Z,55.59
2022-09-27T21:54:55.411Z,55.65
2022-09-27T21:57:22.132Z,55.45
2022-09-27T21:59:48.627Z,55.49
2022-09-27T22:02:15.199Z,55.54
2022-09-27T22:04:41.959Z,55.61
2022-09-27T22:07:08.428Z,55.44
2022-09-27T22:09:34.923Z,55.58
2022-09-27T22:12:01.655Z,55.48
2022-09-27T22:14:28.150Z,55.53
2022-09-27T22:16:54.654Z,55.57
2022-09-27T22:19:21.140Z,55.55
2022-09-27T22:21:47.643Z,55.68
2022-09-27T22:24:15.696Z,55.68
2022-09-27T22:26:44.213Z,55.64
2022-09-27T22:29:11.055Z,55.56
2022-09-27T22:31:37.684Z,55.62
2022-09-27T22:34:05.954Z,55.68
2022-09-27T22:36:33.335Z,55.52
2022-09-27T22:38:59.931Z,55.51
2022-09-27T22:41:26.564Z,55.83
2022-09-27T22:43:53.485Z,55.61
2022-09-27T22:46:20.538Z,55.60
2022-09-27T22:48:47.176Z,55.55
2022-09-27T22:51:13.714Z,55.44
2022-09-27T22:53:40.265Z,55.50
2022-09-27T22:56:19.775Z,55.54
2022-09-27T22:58:47.281Z,55.74
2022-09-27T23:01:21.373Z,55.48
2022-09-27T23:03:49.238Z,55.61
2022-09-27T23:06:16.379Z,55.53
2022-09-27T23:08:42.910Z,55.46
2022-09-27T23:11:13.979Z,55.41
2022-09-27T23:13:41.495Z,55.57
2022-09-27T23:16:09.536Z,55.47
2022-09-27T23:18:36.607Z,55.79
2022-09-27T23:21:06.919Z,55.59
2022-09-27T23:23:34.638Z,55.39
2022-09-27T23:26:02.235Z,55.51
2022-09-27T23:28:29.326Z,55.28
2022-09-27T23:30:55.953Z,55.30
2022-09-27T23:33:22.481Z,55.65
2022-09-27T23:35:50.186Z,55.66
2022-09-27T23:38:16.992Z,55.60
2022-09-27T23:40:44.304Z,55.44
2022-09-27T23:43:10.892Z,55.70
2022-09-27T23:45:37.942Z,55.70
2022-09-27T23:48:05.246Z,55.65
2022-09-27T23:50:32.514Z,55.62
2022-09-27T23:52:59.510Z,55.73
2022-09-27T23:55:26.101Z,55.69
2022-09-27T23:57:52.572Z,55.79
